sensor_id;sensor_type;location;lat;lon;timestamp;pressure;altitude;pressure_sealevel;temperature;humidity
16094;BME280;8151;47.824;12.092;2024-02-16T00:00:19;96223.00;;;7.00;67.79
16094;BME280;8151;47.824;12.092;2024-02-16T00:02:49;96220.69;;;6.97;67.72
16094;BME280;8151;47.824;12.092;2024-02-16T00:05:18;96215.03;;;6.92;68.00
16094;BME280;8151;47.824;12.092;2024-02-16T00:07:47;96212.13;;;6.95;67.84
16094;BME280;8151;47.824;12.092;2024-02-16T00:10:15;96214.44;;;6.98;68.21
16094;BME280;8151;47.824;12.092;2024-02-16T00:12:46;96216.56;;;6.94;68.12
16094;BME280;8151;47.824;12.092;2024-02-16T00:15:14;96217.06;;;6.98;68.18
16094;BME280;8151;47.824;12.092;2024-02-16T00:17:43;96211.16;;;7.14;68.13
16094;BME280;8151;47.824;12.092;2024-02-16T00:20:13;96201.75;;;7.29;67.63
16094;BME280;8151;47.824;12.092;2024-02-16T00:22:41;96206.31;;;7.45;67.18
16094;BME280;8151;47.824;12.092;2024-02-16T00:25:09;96206.38;;;7.53;67.27
16094;BME280;8151;47.824;12.092;2024-02-16T00:27:39;96205.47;;;7.62;67.16
16094;BME280;8151;47.824;12.092;2024-02-16T00:30:09;96212.44;;;7.72;66.77
16094;BME280;8151;47.824;12.092;2024-02-16T00:32:38;96205.56;;;7.79;66.62
16094;BME280;8151;47.824;12.092;2024-02-16T00:35:07;96206.91;;;7.83;66.59
16094;BME280;8151;47.824;12.092;2024-02-16T00:37:37;96198.03;;;7.84;66.23
16094;BME280;8151;47.824;12.092;2024-02-16T00:40:07;96201.81;;;7.81;66.61
16094;BME280;8151;47.824;12.092;2024-02-16T00:42:36;96193.56;;;7.84;66.50
16094;BME280;8151;47.824;12.092;2024-02-16T00:45:05;96186.19;;;7.88;66.35
16094;BME280;8151;47.824;12.092;2024-02-16T00:47:33;96197.09;;;7.93;66.18
16094;BME280;8151;47.824;12.092;2024-02-16T00:50:02;96199.78;;;8.01;65.72
16094;BME280;8151;47.824;12.092;2024-02-16T00:52:32;96192.53;;;8.03;65.53
16094;BME280;8151;47.824;12.092;2024-02-16T00:55:02;96195.47;;;8.00;65.15
16094;BME280;8151;47.824;12.092;2024-02-16T00:57:31;96188.53;;;7.91;65.59
16094;BME280;8151;47.824;12.092;2024-02-16T01:00:01;96187.50;;;7.84;65.66
16094;BME280;8151;47.824;12.092;2024-02-16T01:02:31;96187.78;;;7.81;65.51
16094;BME280;8151;47.824;12.092;2024-02-16T01:05:00;96190.53;;;7.71;65.78
16094;BME280;8151;47.824;12.092;2024-02-16T01:07:30;96184.41;;;7.62;65.96
16094;BME280;8151;47.824;12.092;2024-02-16T01:10:01;96185.69;;;7.58;65.96
16094;BME280;8151;47.824;12.092;2024-02-16T01:12:31;96183.63;;;7.52;65.94
16094;BME280;8151;47.824;12.092;2024-02-16T01:14:59;96180.81;;;7.45;66.12
16094;BME280;8151;47.824;12.092;2024-02-16T01:17:28;96181.28;;;7.41;66.26
16094;BME280;8151;47.824;12.092;2024-02-16T01:19:59;96187.66;;;7.38;66.26
16094;BME280;8151;47.824;12.092;2024-02-16T01:22:28;96179.69;;;7.30;66.44
16094;BME280;8151;47.824;12.092;2024-02-16T01:24:57;96178.50;;;7.24;66.46
16094;BME280;8151;47.824;12.092;2024-02-16T01:27:27;96178.16;;;7.19;66.55
16094;BME280;8151;47.824;12.092;2024-02-16T01:29:55;96180.94;;;7.18;66.69
16094;BME280;8151;47.824;12.092;2024-02-16T01:32:24;96178.28;;;7.18;66.38
16094;BME280;8151;47.824;12.092;2024-02-16T01:34:52;96178.16;;;7.19;66.47
16094;BME280;8151;47.824;12.092;2024-02-16T01:37:21;96181.22;;;7.15;66.41
16094;BME280;8151;47.824;12.092;2024-02-16T01:39:49;96174.91;;;7.07;66.40
16094;BME280;8151;47.824;12.092;2024-02-16T01:42:18;96190.19;;;7.04;66.53
16094;BME280;8151;47.824;12.092;2024-02-16T01:44:48;96189.66;;;7.00;66.52
16094;BME280;8151;47.824;12.092;2024-02-16T01:47:18;96189.41;;;6.94;66.51
16094;BME280;8151;47.824;12.092;2024-02-16T01:49:48;96194.84;;;6.92;66.47
16094;BME280;8151;47.824;12.092;2024-02-16T01:52:16;96195.28;;;6.87;66.05
16094;BME280;8151;47.824;12.092;2024-02-16T01:54:45;96191.06;;;6.77;66.42
16094;BME280;8151;47.824;12.092;2024-02-16T01:57:14;96190.75;;;6.62;66.77
16094;BME280;8151;47.824;12.092;2024-02-16T01:59:43;96194.09;;;6.54;66.89
16094;BME280;8151;47.824;12.092;2024-02-16T02:02:14;96188.84;;;6.54;67.12
16094;BME280;8151;47.824;12.092;2024-02-16T02:04:42;96184.47;;;6.45;67.75
16094;BME280;8151;47.824;12.092;2024-02-16T02:07:12;96189.59;;;6.46;67.53
16094;BME280;8151;47.824;12.092;2024-02-16T02:09:41;96192.59;;;6.52;67.44
16094;BME280;8151;47.824;12.092;2024-02-16T02:12:09;96184.81;;;6.60;67.83
16094;BME280;8151;47.824;12.092;2024-02-16T02:14:38;96186.84;;;6.66;67.82
16094;BME280;8151;47.824;12.092;2024-02-16T02:17:06;96180.31;;;6.70;67.77
16094;BME280;8151;47.824;12.092;2024-02-16T02:19:37;96177.94;;;6.77;67.75
16094;BME280;8151;47.824;12.092;2024-02-16T02:22:13;96173.47;;;6.77;67.93
16094;BME280;8151;47.824;12.092;2024-02-16T02:24:41;96174.97;;;6.80;67.96
16094;BME280;8151;47.824;12.092;2024-02-16T02:27:11;96171.91;;;6.84;67.81
16094;BME280;8151;47.824;12.092;2024-02-16T02:29:40;96170.78;;;6.87;68.28
16094;BME280;8151;47.824;12.092;2024-02-16T02:32:09;96163.78;;;6.96;68.11
16094;BME280;8151;47.824;12.092;2024-02-16T02:34:39;96170.03;;;6.95;68.63
16094;BME280;8151;47.824;12.092;2024-02-16T02:37:07;96168.53;;;6.92;69.14
16094;BME280;8151;47.824;12.092;2024-02-16T02:39:37;96163.41;;;6.90;69.41
16094;BME280;8151;47.824;12.092;2024-02-16T02:42:06;96156.81;;;6.86;69.31
16094;BME280;8151;47.824;12.092;2024-02-16T02:44:35;96155.22;;;6.76;69.50
16094;BME280;8151;47.824;12.092;2024-02-16T02:47:04;96156.97;;;6.67;70.33
16094;BME280;8151;47.824;12.092;2024-02-16T02:49:32;96163.84;;;6.68;70.34
16094;BME280;8151;47.824;12.092;2024-02-16T02:52:02;96168.44;;;6.66;70.28
16094;BME280;8151;47.824;12.092;2024-02-16T02:54:31;96176.84;;;6.69;70.49
16094;BME280;8151;47.824;12.092;2024-02-16T02:57:02;96167.16;;;6.70;70.43
16094;BME280;8151;47.824;12.092;2024-02-16T02:59:30;96168.03;;;6.61;70.36
16094;BME280;8151;47.824;12.092;2024-02-16T03:01:59;96162.09;;;6.59;70.60
16094;BME280;8151;47.824;12.092;2024-02-16T03:04:27;96159.06;;;6.63;70.47
16094;BME280;8151;47.824;12.092;2024-02-16T03:06:56;96164.31;;;6.63;70.65
16094;BME280;8151;47.824;12.092;2024-02-16T03:09:24;96163.31;;;6.64;70.42
16094;BME280;8151;47.824;12.092;2024-02-16T03:11:53;96166.75;;;6.65;70.56
16094;BME280;8151;47.824;12.092;2024-02-16T03:14:23;96161.44;;;6.57;70.66
16094;BME280;8151;47.824;12.092;2024-02-16T03:16:51;96162.41;;;6.56;70.72
16094;BME280;8151;47.824;12.092;2024-02-16T03:19:20;96157.31;;;6.54;71.22
16094;BME280;8151;47.824;12.092;2024-02-16T03:21:49;96160.91;;;6.53;71.49
16094;BME280;8151;47.824;12.092;2024-02-16T03:24:17;96155.81;;;6.52;71.29
16094;BME280;8151;47.824;12.092;2024-02-16T03:26:47;96151.22;;;6.54;71.18
16094;BME280;8151;47.824;12.092;2024-02-16T03:29:16;96150.63;;;6.60;71.23
16094;BME280;8151;47.824;12.092;2024-02-16T03:31:46;96155.81;;;6.69;70.98
16094;BME280;8151;47.824;12.092;2024-02-16T03:34:14;96154.09;;;6.78;70.56
16094;BME280;8151;47.824;12.092;2024-02-16T03:36:43;96151.56;;;6.86;70.12
16094;BME280;8151;47.824;12.092;2024-02-16T03:39:11;96152.75;;;6.92;70.07
16094;BME280;8151;47.824;12.092;2024-02-16T03:41:40;96160.19;;;6.97;69.78
16094;BME280;8151;47.824;12.092;2024-02-16T03:44:08;96154.78;;;6.98;69.41
16094;BME280;8151;47.824;12.092;2024-02-16T03:46:36;96161.16;;;6.96;69.17
16094;BME280;8151;47.824;12.092;2024-02-16T03:49:06;96168.81;;;6.89;69.30
16094;BME280;8151;47.824;12.092;2024-02-16T03:51:35;96170.41;;;6.82;69.25
16094;BME280;8151;47.824;12.092;2024-02-16T03:54:04;96168.81;;;6.71;69.21
16094;BME280;8151;47.824;12.092;2024-02-16T03:56:32;96177.44;;;6.63;69.53
16094;BME280;8151;47.824;12.092;2024-02-16T03:59:01;96182.22;;;6.50;69.63
16094;BME280;8151;47.824;12.092;2024-02-16T04:01:33;96183.66;;;6.44;69.64
16094;BME280;8151;47.824;12.092;2024-02-16T04:04:02;96183.25;;;6.39;69.12
16094;BME280;8151;47.824;12.092;2024-02-16T04:06:32;96180.81;;;6.28;69.78
16094;BME280;8151;47.824;12.092;2024-02-16T04:09:01;96177.41;;;6.18;69.32
16094;BME280;8151;47.824;12.092;2024-02-16T04:11:29;96186.56;;;6.14;69.88
16094;BME280;8151;47.824;12.092;2024-02-16T04:13:59;96188.50;;;6.11;69.77
16094;BME280;8151;47.824;12.092;2024-02-16T04:16:28;96188.28;;;6.05;69.30
16094;BME280;8151;47.824;12.092;2024-02-16T04:18:56;96196.28;;;5.94;70.00
16094;BME280;8151;47.824;12.092;2024-02-16T04:21:25;96193.25;;;5.88;69.64
16094;BME280;8151;47.824;12.092;2024-02-16T04:23:55;96202.13;;;5.87;70.05
16094;BME280;8151;47.824;12.092;2024-02-16T04:26:23;96196.69;;;5.89;69.84
16094;BME280;8151;47.824;12.092;2024-02-16T04:28:52;96200.84;;;5.91;69.32
16094;BME280;8151;47.824;12.092;2024-02-16T04:31:20;96197.69;;;5.98;69.46
16094;BME280;8151;47.824;12.092;2024-02-16T04:33:49;96202.81;;;5.89;69.41
16094;BME280;8151;47.824;12.092;2024-02-16T04:36:17;96199.31;;;5.89;68.85
16094;BME280;8151;47.824;12.092;2024-02-16T04:38:46;96206.53;;;5.87;68.74
16094;BME280;8151;47.824;12.092;2024-02-16T04:41:16;96201.13;;;5.88;68.81
16094;BME280;8151;47.824;12.092;2024-02-16T04:43:47;96207.88;;;5.91;68.91
16094;BME280;8151;47.824;12.092;2024-02-16T04:46:16;96210.00;;;5.87;69.03
16094;BME280;8151;47.824;12.092;2024-02-16T04:48:45;96220.50;;;5.78;68.64
16094;BME280;8151;47.824;12.092;2024-02-16T04:51:13;96217.09;;;5.58;69.63
16094;BME280;8151;47.824;12.092;2024-02-16T04:53:42;96222.78;;;5.43;70.00
16094;BME280;8151;47.824;12.092;2024-02-16T04:56:10;96229.56;;;5.26;69.88
16094;BME280;8151;47.824;12.092;2024-02-16T04:58:41;96228.59;;;5.08;69.85
16094;BME280;8151;47.824;12.092;2024-02-16T05:01:10;96220.69;;;4.98;70.80
16094;BME280;8151;47.824;12.092;2024-02-16T05:03:39;96226.09;;;4.87;70.53
16094;BME280;8151;47.824;12.092;2024-02-16T05:06:09;96224.00;;;4.81;70.59
16094;BME280;8151;47.824;12.092;2024-02-16T05:08:37;96226.78;;;4.79;70.62
16094;BME280;8151;47.824;12.092;2024-02-16T05:11:06;96231.47;;;4.85;70.30
16094;BME280;8151;47.824;12.092;2024-02-16T05:13:36;96229.97;;;4.92;69.83
16094;BME280;8151;47.824;12.092;2024-02-16T05:16:09;96232.72;;;5.01;70.20
16094;BME280;8151;47.824;12.092;2024-02-16T05:18:38;96227.34;;;5.12;69.76
16094;BME280;8151;47.824;12.092;2024-02-16T05:21:08;96230.13;;;5.20;69.32
16094;BME280;8151;47.824;12.092;2024-02-16T05:23:37;96224.31;;;5.36;69.36
16094;BME280;8151;47.824;12.092;2024-02-16T05:26:05;96232.84;;;5.38;69.18
16094;BME280;8151;47.824;12.092;2024-02-16T05:28:34;96240.19;;;5.35;68.75
16094;BME280;8151;47.824;12.092;2024-02-16T05:31:14;96232.31;;;5.35;69.04
16094;BME280;8151;47.824;12.092;2024-02-16T05:33:48;96234.94;;;5.35;69.42
16094;BME280;8151;47.824;12.092;2024-02-16T05:36:17;96231.47;;;5.34;69.25
16094;BME280;8151;47.824;12.092;2024-02-16T05:38:47;96237.84;;;5.31;69.42
16094;BME280;8151;47.824;12.092;2024-02-16T05:41:16;96237.56;;;5.35;69.39
16094;BME280;8151;47.824;12.092;2024-02-16T05:43:46;96232.03;;;5.38;69.47
16094;BME280;8151;47.824;12.092;2024-02-16T05:46:17;96242.22;;;5.41;69.34
16094;BME280;8151;47.824;12.092;2024-02-16T05:48:45;96237.84;;;5.41;69.20
16094;BME280;8151;47.824;12.092;2024-02-16T05:51:14;96235.47;;;5.38;69.84
16094;BME280;8151;47.824;12.092;2024-02-16T05:53:43;96223.34;;;5.37;69.84
16094;BME280;8151;47.824;12.092;2024-02-16T05:56:12;96229.66;;;5.44;69.80
16094;BME280;8151;47.824;12.092;2024-02-16T05:58:41;96234.53;;;5.49;69.82
16094;BME280;8151;47.824;12.092;2024-02-16T06:01:09;96235.22;;;5.51;69.00
16094;BME280;8151;47.824;12.092;2024-02-16T06:03:42;96228.97;;;5.52;69.17
16094;BME280;8151;47.824;12.092;2024-02-16T06:06:11;96228.16;;;5.51;69.10
16094;BME280;8151;47.824;12.092;2024-02-16T06:08:40;96228.16;;;5.51;69.72
16094;BME280;8151;47.824;12.092;2024-02-16T06:11:08;96225.41;;;5.53;69.40
16094;BME280;8151;47.824;12.092;2024-02-16T06:13:37;96231.47;;;5.53;69.32
16094;BME280;8151;47.824;12.092;2024-02-16T06:16:06;96235.91;;;5.53;70.15
16094;BME280;8151;47.824;12.092;2024-02-16T06:18:37;96233.97;;;5.45;69.65
16094;BME280;8151;47.824;12.092;2024-02-16T06:21:08;96241.16;;;5.33;70.32
16094;BME280;8151;47.824;12.092;2024-02-16T06:23:36;96240.88;;;5.17;70.59
16094;BME280;8151;47.824;12.092;2024-02-16T06:26:06;96244.03;;;5.11;70.45
16094;BME280;8151;47.824;12.092;2024-02-16T06:28:35;96246.81;;;5.19;70.72
16094;BME280;8151;47.824;12.092;2024-02-16T06:31:03;96252.34;;;5.36;70.02
16094;BME280;8151;47.824;12.092;2024-02-16T06:33:32;96249.28;;;5.50;69.46
16094;BME280;8151;47.824;12.092;2024-02-16T06:36:01;96258.25;;;5.57;70.02
16094;BME280;8151;47.824;12.092;2024-02-16T06:38:31;96250.81;;;5.62;69.15
16094;BME280;8151;47.824;12.092;2024-02-16T06:40:59;96255.34;;;5.70;69.32
16094;BME280;8151;47.824;12.092;2024-02-16T06:43:29;96250.78;;;5.82;68.54
16094;BME280;8151;47.824;12.092;2024-02-16T06:45:58;96252.25;;;5.94;68.36
16094;BME280;8151;47.824;12.092;2024-02-16T06:48:26;96258.75;;;6.09;68.19
16094;BME280;8151;47.824;12.092;2024-02-16T06:50:55;96264.22;;;6.26;67.97
16094;BME280;8151;47.824;12.092;2024-02-16T06:53:23;96268.31;;;6.38;67.70
16094;BME280;8151;47.824;12.092;2024-02-16T06:55:53;96270.78;;;6.49;67.65
16094;BME280;8151;47.824;12.092;2024-02-16T06:58:22;96274.31;;;6.58;67.41
16094;BME280;8151;47.824;12.092;2024-02-16T07:00:50;96274.28;;;6.68;66.94
16094;BME280;8151;47.824;12.092;2024-02-16T07:03:19;96268.16;;;6.77;66.96
16094;BME280;8151;47.824;12.092;2024-02-16T07:05:47;96277.63;;;6.88;66.87
16094;BME280;8151;47.824;12.092;2024-02-16T07:08:16;96286.13;;;7.00;67.12
16094;BME280;8151;47.824;12.092;2024-02-16T07:10:44;96287.88;;;7.09;67.14
16094;BME280;8151;47.824;12.092;2024-02-16T07:13:15;96290.44;;;7.19;66.84
16094;BME280;8151;47.824;12.092;2024-02-16T07:15:44;96295.63;;;7.28;67.31
16094;BME280;8151;47.824;12.092;2024-02-16T07:18:13;96298.19;;;7.38;67.26
16094;BME280;8151;47.824;12.092;2024-02-16T07:20:42;96302.44;;;7.49;66.98
16094;BME280;8151;47.824;12.092;2024-02-16T07:23:14;96309.97;;;7.62;66.82
16094;BME280;8151;47.824;12.092;2024-02-16T07:25:42;96307.91;;;7.74;66.56
16094;BME280;8151;47.824;12.092;2024-02-16T07:28:11;96313.91;;;7.84;66.58
16094;BME280;8151;47.824;12.092;2024-02-16T07:30:41;96305.13;;;7.93;66.68
16094;BME280;8151;47.824;12.092;2024-02-16T07:33:10;96312.75;;;8.04;66.48
16094;BME280;8151;47.824;12.092;2024-02-16T07:35:39;96314.31;;;8.15;66.42
16094;BME280;8151;47.824;12.092;2024-02-16T07:38:07;96315.03;;;8.25;66.71
16094;BME280;8151;47.824;12.092;2024-02-16T07:40:36;96320.38;;;8.34;66.41
16094;BME280;8151;47.824;12.092;2024-02-16T07:43:04;96325.41;;;8.45;66.56
16094;BME280;8151;47.824;12.092;2024-02-16T07:45:33;96329.59;;;8.56;66.71
16094;BME280;8151;47.824;12.092;2024-02-16T07:48:04;96331.63;;;8.70;66.44
16094;BME280;8151;47.824;12.092;2024-02-16T07:50:35;96328.06;;;8.79;66.36
16094;BME280;8151;47.824;12.092;2024-02-16T07:53:03;96327.13;;;8.89;66.31
16094;BME280;8151;47.824;12.092;2024-02-16T07:55:32;96332.44;;;8.97;66.11
16094;BME280;8151;47.824;12.092;2024-02-16T07:58:00;96334.75;;;9.00;66.14
16094;BME280;8151;47.824;12.092;2024-02-16T08:00:30;96339.19;;;8.99;66.09
16094;BME280;8151;47.824;12.092;2024-02-16T08:02:58;96342.34;;;9.03;66.27
16094;BME280;8151;47.824;12.092;2024-02-16T08:05:28;96343.66;;;9.07;66.11
16094;BME280;8151;47.824;12.092;2024-02-16T08:07:57;96336.63;;;9.16;65.84
16094;BME280;8151;47.824;12.092;2024-02-16T08:10:26;96339.44;;;9.22;65.66
16094;BME280;8151;47.824;12.092;2024-02-16T08:12:54;96350.34;;;9.27;65.50
16094;BME280;8151;47.824;12.092;2024-02-16T08:15:23;96348.06;;;9.33;65.69
16094;BME280;8151;47.824;12.092;2024-02-16T08:17:53;96353.00;;;9.36;65.63
16094;BME280;8151;47.824;12.092;2024-02-16T08:20:22;96350.38;;;9.36;65.89
16094;BME280;8151;47.824;12.092;2024-02-16T08:22:52;96347.88;;;9.34;65.71
16094;BME280;8151;47.824;12.092;2024-02-16T08:25:20;96353.34;;;9.33;66.30
16094;BME280;8151;47.824;12.092;2024-02-16T08:27:49;96353.00;;;9.36;65.91
16094;BME280;8151;47.824;12.092;2024-02-16T08:30:18;96354.53;;;9.46;66.18
16094;BME280;8151;47.824;12.092;2024-02-16T08:32:46;96354.06;;;9.59;65.58
16094;BME280;8151;47.824;12.092;2024-02-16T08:35:15;96360.53;;;9.73;65.82
16094;BME280;8151;47.824;12.092;2024-02-16T08:37:44;96360.03;;;9.86;65.66
16094;BME280;8151;47.824;12.092;2024-02-16T08:40:15;96359.88;;;9.96;66.33
16094;BME280;8151;47.824;12.092;2024-02-16T08:42:44;96373.59;;;10.08;66.14
16094;BME280;8151;47.824;12.092;2024-02-16T08:45:12;96363.72;;;10.18;66.04
16094;BME280;8151;47.824;12.092;2024-02-16T08:47:44;96364.53;;;10.27;66.40
16094;BME280;8151;47.824;12.092;2024-02-16T08:50:16;96370.63;;;10.27;65.94
16094;BME280;8151;47.824;12.092;2024-02-16T08:52:45;96370.47;;;10.29;66.65
16094;BME280;8151;47.824;12.092;2024-02-16T08:55:15;96374.28;;;10.26;66.82
16094;BME280;8151;47.824;12.092;2024-02-16T08:57:43;96370.47;;;10.20;66.77
16094;BME280;8151;47.824;12.092;2024-02-16T09:00:13;96367.31;;;10.17;66.71
16094;BME280;8151;47.824;12.092;2024-02-16T09:02:43;96371.13;;;10.14;66.89
16094;BME280;8151;47.824;12.092;2024-02-16T09:05:13;96364.19;;;10.13;66.86
16094;BME280;8151;47.824;12.092;2024-02-16T09:07:42;96369.31;;;10.15;66.69
16094;BME280;8151;47.824;12.092;2024-02-16T09:10:10;96364.84;;;10.15;66.80
16094;BME280;8151;47.824;12.092;2024-02-16T09:12:40;96364.69;;;10.17;66.56
16094;BME280;8151;47.824;12.092;2024-02-16T09:15:09;96368.66;;;10.21;66.76
16094;BME280;8151;47.824;12.092;2024-02-16T09:17:39;96375.25;;;10.25;66.47
16094;BME280;8151;47.824;12.092;2024-02-16T09:20:08;96369.66;;;10.28;66.59
16094;BME280;8151;47.824;12.092;2024-02-16T09:22:40;96369.47;;;10.30;66.76
16094;BME280;8151;47.824;12.092;2024-02-16T09:25:13;96370.19;;;10.32;66.19
16094;BME280;8151;47.824;12.092;2024-02-16T09:27:43;96369.31;;;10.31;66.23
16094;BME280;8151;47.824;12.092;2024-02-16T09:30:13;96372.66;;;10.33;66.16
16094;BME280;8151;47.824;12.092;2024-02-16T09:32:42;96375.13;;;10.35;66.00
16094;BME280;8151;47.824;12.092;2024-02-16T09:35:11;96372.00;;;10.39;65.77
16094;BME280;8151;47.824;12.092;2024-02-16T09:37:40;96370.00;;;10.41;65.31
16094;BME280;8151;47.824;12.092;2024-02-16T09:40:11;96368.00;;;10.43;64.71
16094;BME280;8151;47.824;12.092;2024-02-16T09:42:41;96374.28;;;10.42;64.78
16094;BME280;8151;47.824;12.092;2024-02-16T09:45:11;96366.84;;;10.46;64.53
16094;BME280;8151;47.824;12.092;2024-02-16T09:47:43;96364.19;;;10.54;63.66
16094;BME280;8151;47.824;12.092;2024-02-16T09:50:27;96363.66;;;10.67;63.54
16094;BME280;8151;47.824;12.092;2024-02-16T09:52:56;96365.44;;;10.83;63.03
16094;BME280;8151;47.824;12.092;2024-02-16T09:55:26;96366.06;;;11.01;62.65
16094;BME280;8151;47.824;12.092;2024-02-16T09:58:00;96354.59;;;11.17;62.33
16094;BME280;8151;47.824;12.092;2024-02-16T10:00:33;96367.56;;;11.35;62.02
16094;BME280;8151;47.824;12.092;2024-02-16T10:03:01;96367.66;;;11.50;61.83
16094;BME280;8151;47.824;12.092;2024-02-16T10:05:31;96361.78;;;11.63;61.41
16094;BME280;8151;47.824;12.092;2024-02-16T10:07:59;96366.34;;;11.77;60.96
16094;BME280;8151;47.824;12.092;2024-02-16T10:10:29;96365.78;;;11.90;60.88
16094;BME280;8151;47.824;12.092;2024-02-16T10:13:02;96363.56;;;12.02;60.52
16094;BME280;8151;47.824;12.092;2024-02-16T10:15:32;96360.31;;;12.15;60.58
16094;BME280;8151;47.824;12.092;2024-02-16T10:18:02;96363.00;;;12.30;60.36
16094;BME280;8151;47.824;12.092;2024-02-16T10:20:32;96362.69;;;12.48;60.02
16094;BME280;8151;47.824;12.092;2024-02-16T10:23:05;96355.56;;;12.63;59.58
16094;BME280;8151;47.824;12.092;2024-02-16T10:25:34;96364.38;;;12.78;59.12
16094;BME280;8151;47.824;12.092;2024-02-16T10:28:05;96354.75;;;12.92;59.22
16094;BME280;8151;47.824;12.092;2024-02-16T10:30:37;96347.16;;;13.04;58.74
16094;BME280;8151;47.824;12.092;2024-02-16T10:33:06;96340.56;;;13.15;58.63
16094;BME280;8151;47.824;12.092;2024-02-16T10:35:36;96339.88;;;13.28;58.45
16094;BME280;8151;47.824;12.092;2024-02-16T10:38:06;96332.28;;;13.39;57.97
16094;BME280;8151;47.824;12.092;2024-02-16T10:40:38;96330.81;;;13.52;57.65
16094;BME280;8151;47.824;12.092;2024-02-16T10:43:08;96330.34;;;13.63;57.27
16094;BME280;8151;47.824;12.092;2024-02-16T10:45:39;96326.53;;;13.72;57.14
16094;BME280;8151;47.824;12.092;2024-02-16T10:48:08;96328.88;;;13.82;56.94
16094;BME280;8151;47.824;12.092;2024-02-16T10:50:37;96335.34;;;13.94;56.74
16094;BME280;8151;47.824;12.092;2024-02-16T10:53:10;96323.13;;;14.00;56.04
16094;BME280;8151;47.824;12.092;2024-02-16T10:55:40;96321.09;;;14.02;56.55
16094;BME280;8151;47.824;12.092;2024-02-16T10:58:10;96324.84;;;14.08;56.11
16094;BME280;8151;47.824;12.092;2024-02-16T11:00:50;96316.91;;;14.14;55.83
16094;BME280;8151;47.824;12.092;2024-02-16T11:03:22;96321.25;;;14.22;56.10
16094;BME280;8151;47.824;12.092;2024-02-16T11:05:52;96323.16;;;14.28;56.05
16094;BME280;8151;47.824;12.092;2024-02-16T11:08:24;96311.59;;;14.43;55.10
16094;BME280;8151;47.824;12.092;2024-02-16T11:10:54;96317.41;;;14.53;55.27
16094;BME280;8151;47.824;12.092;2024-02-16T11:13:24;96320.69;;;14.55;55.28
16094;BME280;8151;47.824;12.092;2024-02-16T11:16:02;96321.72;;;14.54;54.38
16094;BME280;8151;47.824;12.092;2024-02-16T11:18:31;96318.41;;;14.52;54.82
16094;BME280;8151;47.824;12.092;2024-02-16T11:21:00;96318.19;;;14.47;55.08
16094;BME280;8151;47.824;12.092;2024-02-16T11:23:30;96315.09;;;14.43;55.08
16094;BME280;8151;47.824;12.092;2024-02-16T11:26:03;96318.75;;;14.42;54.80
16094;BME280;8151;47.824;12.092;2024-02-16T11:28:33;96314.28;;;14.43;54.97
16094;BME280;8151;47.824;12.092;2024-02-16T11:31:04;96318.75;;;14.42;54.75
16094;BME280;8151;47.824;12.092;2024-02-16T11:33:34;96324.94;;;14.49;54.69
16094;BME280;8151;47.824;12.092;2024-02-16T11:36:05;96321.16;;;14.59;54.38
16094;BME280;8151;47.824;12.092;2024-02-16T11:38:35;96314.47;;;14.69;54.10
16094;BME280;8151;47.824;12.092;2024-02-16T11:41:05;96315.16;;;14.85;53.28
16094;BME280;8151;47.824;12.092;2024-02-16T11:43:35;96317.53;;;15.01;53.28
16094;BME280;8151;47.824;12.092;2024-02-16T11:46:22;96303.22;;;15.09;51.98
16094;BME280;8151;47.824;12.092;2024-02-16T11:48:52;96306.53;;;15.18;52.71
16094;BME280;8151;47.824;12.092;2024-02-16T11:51:20;96310.28;;;15.30;52.40
16094;BME280;8151;47.824;12.092;2024-02-16T11:53:55;96297.81;;;15.44;51.55
16094;BME280;8151;47.824;12.092;2024-02-16T11:56:25;96295.38;;;15.55;51.71
16094;BME280;8151;47.824;12.092;2024-02-16T11:58:53;96291.09;;;15.68;51.46
16094;BME280;8151;47.824;12.092;2024-02-16T12:01:23;96279.25;;;15.77;51.27
16094;BME280;8151;47.824;12.092;2024-02-16T12:03:52;96289.53;;;15.93;50.87
16094;BME280;8151;47.824;12.092;2024-02-16T12:06:21;96289.34;;;16.08;50.55
16094;BME280;8151;47.824;12.092;2024-02-16T12:08:50;96284.19;;;16.20;50.47
16094;BME280;8151;47.824;12.092;2024-02-16T12:11:20;96280.50;;;16.28;50.51
16094;BME280;8151;47.824;12.092;2024-02-16T12:13:50;96273.13;;;16.37;50.41
16094;BME280;8151;47.824;12.092;2024-02-16T12:16:19;96278.84;;;16.47;50.35
16094;BME280;8151;47.824;12.092;2024-02-16T12:18:49;96285.44;;;16.58;49.90
16094;BME280;8151;47.824;12.092;2024-02-16T12:21:18;96282.31;;;16.67;49.71
16094;BME280;8151;47.824;12.092;2024-02-16T12:23:49;96282.09;;;16.76;49.64
16094;BME280;8151;47.824;12.092;2024-02-16T12:26:18;96281.91;;;16.84;49.40
16094;BME280;8151;47.824;12.092;2024-02-16T12:28:47;96282.28;;;16.94;49.20
16094;BME280;8151;47.824;12.092;2024-02-16T12:31:19;96281.81;;;17.04;49.22
16094;BME280;8151;47.824;12.092;2024-02-16T12:33:49;96277.88;;;17.13;49.24
16094;BME280;8151;47.824;12.092;2024-02-16T12:36:18;96282.59;;;17.24;49.11
16094;BME280;8151;47.824;12.092;2024-02-16T12:38:47;96282.72;;;17.36;48.70
16094;BME280;8151;47.824;12.092;2024-02-16T12:41:15;96281.88;;;17.42;48.53
16094;BME280;8151;47.824;12.092;2024-02-16T12:43:44;96280.00;;;17.49;48.43
16094;BME280;8151;47.824;12.092;2024-02-16T12:46:13;96276.66;;;17.61;48.21
16094;BME280;8151;47.824;12.092;2024-02-16T12:48:41;96277.19;;;17.69;47.94
16094;BME280;8151;47.824;12.092;2024-02-16T12:51:15;96277.78;;;17.78;47.53
16094;BME280;8151;47.824;12.092;2024-02-16T12:53:44;96279.19;;;17.87;47.17
16094;BME280;8151;47.824;12.092;2024-02-16T12:56:12;96279.34;;;17.93;46.93
16094;BME280;8151;47.824;12.092;2024-02-16T12:58:41;96287.56;;;17.98;46.84
16094;BME280;8151;47.824;12.092;2024-02-16T13:01:09;96285.41;;;18.06;46.66
16094;BME280;8151;47.824;12.092;2024-02-16T13:03:52;96279.38;;;18.18;46.54
16094;BME280;8151;47.824;12.092;2024-02-16T13:06:22;96278.28;;;18.25;46.22
16094;BME280;8151;47.824;12.092;2024-02-16T13:08:55;96272.63;;;18.34;46.17
16094;BME280;8151;47.824;12.092;2024-02-16T13:11:24;96278.38;;;18.37;46.00
16094;BME280;8151;47.824;12.092;2024-02-16T13:13:52;96277.28;;;18.45;45.58
16094;BME280;8151;47.824;12.092;2024-02-16T13:16:21;96279.66;;;18.53;45.38
16094;BME280;8151;47.824;12.092;2024-02-16T13:18:49;96277.75;;;18.60;45.16